Impacts TAF Board
For situational awareness. Not to be used for flight planning purposes.
IDs:

KEWR - Newark Intl, NJ, US

Issued at 1738 UTC 12 Dec 2018
Updated at 1819 UTC 12 Dec 2018
Potential Impact None Slight Moderate High
Time1751Z 12/19Z 12/20Z 12/21Z 12/22Z 12/23Z 13/00Z 13/01Z 13/02Z 13/03Z 13/04Z 13/05Z 13/06Z 13/07Z>>
Type OBS PRVL
  [TEMP]  
PRVL
  [TEMP]  
PRVL PRVL PRVL PRVL PRVL PRVL PRVL PRVL PRVL PRVL PRVL
VIS 10 >6 >6 >6 >6 >6 >6 >6 >6 >6 >6 >6 >6 >6
CIG 42 --
  [40]  
--
  [40]  
-- -- -- -- -- -- -- 200 200 200 200
Cover OVC SCT
  [BKN]  
SCT
  [BKN]  
SCT SCT SCT SCT SCT SCT SCT BKN BKN BKN BKN
FltCat VFR VFR
  [VFR]  
VFR
  [VFR]  
VFR VFR VFR VFR VFR VFR VFR VFR VFR VFR VFR
WX -- --
  [--]  
--
  [--]  
-- -- -- -- -- -- -- -- -- -- --
WDir 280 320
[320]
320
[320]
300 300 300 300 300 300 300 VRB VRB VRB VRB
WSpd 9 10
  [10]  
10
  [10]  
11 11 11 11 11 11 11 5 5 5 5
WGst 16 16
  [16]  
16
  [16]  
-- -- -- -- -- -- -- -- -- -- --
Raw TAF
KEWR 121738Z 1218/1324 32010G16KT P6SM SCT040
  TEMPO 1218/1221 BKN040
  FM122100 30011KT P6SM SCT050 SCT250
  FM130400 VRB05KT P6SM FEW030 BKN200
  FM130900 06006KT P6SM SCT025 BKN050
  FM131100 09007KT P6SM BKN025 BKN040
  PROB30 1312/1315 4SM -SN BKN025
  FM131500 10010KT 6SM -RASN BKN015 OVC040
  FM131700 10010KT 6SM -DZ OVC015


Raw METAR
KEWR 121751Z 28009G16KT 10SM OVC042 04/M04 A3013 RMK AO2 SLP204 T00391039 10050 21006 56003
KEWR 121651Z 31013KT 10SM BKN045 04/M05 A3014 RMK AO2 PK WND 30026/1607 SLP204 T00441050
KEWR 121551Z 32013KT 10SM BKN040 04/M04 A3014 RMK AO2 SLP204 T00391044

METAR Board
Radar Display
Forecast Discussion
For situational awareness. Not to be used for flight planning purposes.